createdAt,value
2018-10-07T00:06:32.861Z,974.80
2018-10-07T00:16:18.179Z,974.84
2018-10-07T00:20:52.373Z,974.89
2018-10-07T00:36:23.198Z,974.90
2018-10-07T01:08:07.930Z,975.06
2018-10-07T01:09:07.756Z,975.04
2018-10-07T01:14:25.933Z,975.04
2018-10-07T01:23:32.660Z,975.20
2018-10-07T01:27:45.280Z,975.24
2018-10-07T01:33:45.489Z,975.23
2018-10-07T01:34:45.176Z,975.21
2018-10-07T01:44:09.474Z,975.39
2018-10-07T02:02:47.577Z,975.47
2018-10-07T02:05:59.200Z,975.50
2018-10-07T02:08:42.474Z,975.55
2018-10-07T02:14:25.106Z,975.57
2018-10-07T02:34:06.644Z,975.72
2018-10-07T02:36:51.985Z,975.65
2018-10-07T02:37:51.649Z,975.69
2018-10-07T02:38:51.788Z,975.67
2018-10-07T02:39:51.600Z,975.71
2018-10-07T02:47:22.014Z,975.69
2018-10-07T03:00:28.741Z,975.72
2018-10-07T03:03:13.713Z,975.76
2018-10-07T03:13:47.149Z,975.82
2018-10-07T03:28:47.320Z,975.83
2018-10-07T03:32:30.854Z,975.83
2018-10-07T03:43:52.454Z,975.98
2018-10-07T03:48:58.348Z,975.99
2018-10-07T03:53:36.269Z,976.04
2018-10-07T03:54:36.049Z,976.01
2018-10-07T03:56:58.435Z,976.00
2018-10-07T03:57:58.261Z,975.97
2018-10-07T03:59:07.419Z,976.00
2018-10-07T03:59:58.171Z,975.99
2018-10-07T04:00:58.182Z,976.03
2018-10-07T04:02:05.098Z,975.99
2018-10-07T04:02:58.063Z,975.98
2018-10-07T04:03:58.065Z,976.02
2018-10-07T04:04:58.038Z,976.04
2018-10-07T04:05:58.028Z,976.09
2018-10-07T04:06:58.016Z,976.11
2018-10-07T04:07:58.008Z,976.15
2018-10-07T04:08:58.005Z,976.11
2018-10-07T04:09:57.981Z,976.12
2018-10-07T04:10:57.971Z,976.13
2018-10-07T04:11:57.963Z,976.16
2018-10-07T04:12:57.953Z,976.21
2018-10-07T04:13:57.955Z,976.16
2018-10-07T04:14:57.945Z,976.18
2018-10-07T04:15:57.918Z,976.22
2018-10-07T04:16:57.908Z,976.23
2018-10-07T04:17:57.900Z,976.24
2018-10-07T04:18:57.896Z,976.21
2018-10-07T04:19:57.888Z,976.24
2018-10-07T04:20:57.861Z,976.23
2018-10-07T04:21:57.855Z,976.23
2018-10-07T04:22:57.841Z,976.24
2018-10-07T04:23:57.829Z,976.21
2018-10-07T04:24:57.833Z,976.23
2018-10-07T04:25:57.806Z,976.26
2018-10-07T04:26:57.795Z,976.23
2018-10-07T04:27:57.783Z,976.29
2018-10-07T04:28:57.771Z,976.31
2018-10-07T04:29:57.772Z,976.36
2018-10-07T04:30:57.748Z,976.35
2018-10-07T04:31:57.737Z,976.33
2018-10-07T04:32:57.725Z,976.38
2018-10-07T04:33:57.715Z,976.41
2018-10-07T04:34:57.712Z,976.43
2018-10-07T04:35:57.689Z,976.47
2018-10-07T04:36:57.676Z,976.54
2018-10-07T04:37:57.669Z,976.57
2018-10-07T04:38:57.661Z,976.53
2018-10-07T04:39:57.730Z,976.57
2018-10-07T04:40:57.637Z,976.53
2018-10-07T04:41:57.634Z,976.49
2018-10-07T04:42:57.610Z,976.55
2018-10-07T04:43:57.602Z,976.51
2018-10-07T04:44:57.604Z,976.49
2018-10-07T04:45:57.574Z,976.55
2018-10-07T04:46:57.563Z,976.59
2018-10-07T04:47:57.557Z,976.63
2018-10-07T04:48:57.543Z,976.65
2018-10-07T04:49:57.546Z,976.63
2018-10-07T04:50:57.519Z,976.67
2018-10-07T04:51:57.506Z,976.65
2018-10-07T04:52:57.498Z,976.69
2018-10-07T04:53:57.507Z,976.70
2018-10-07T04:54:57.486Z,976.70
2018-10-07T04:55:57.462Z,976.74
2018-10-07T04:56:57.449Z,976.77
2018-10-07T04:57:57.438Z,976.75
2018-10-07T04:58:57.427Z,976.78
2018-10-07T04:59:57.427Z,976.77
2018-10-07T05:00:57.406Z,976.84
2018-10-07T05:01:57.393Z,976.84
2018-10-07T05:02:57.382Z,976.83
2018-10-07T05:03:57.375Z,976.87
2018-10-07T05:04:57.371Z,976.85
2018-10-07T05:05:57.344Z,976.90
2018-10-07T05:06:57.332Z,976.92
2018-10-07T05:07:57.321Z,976.91
2018-10-07T05:08:57.309Z,976.91
2018-10-07T05:09:57.319Z,976.95
2018-10-07T05:10:57.286Z,976.98
2018-10-07T05:11:57.321Z,976.96
2018-10-07T05:12:57.265Z,977.00
2018-10-07T05:13:57.253Z,977.02
2018-10-07T05:14:57.258Z,977.04
2018-10-07T05:15:57.232Z,977.06
2018-10-07T05:16:57.220Z,977.03
2018-10-07T05:17:57.208Z,977.05
2018-10-07T05:18:57.196Z,977.06
2018-10-07T05:19:57.197Z,977.11
2018-10-07T05:20:57.230Z,977.05
2018-10-07T05:21:57.162Z,977.07
2018-10-07T05:22:57.153Z,977.10
2018-10-07T05:23:57.142Z,977.10
2018-10-07T05:24:57.140Z,977.12
2018-10-07T05:25:57.119Z,977.13
2018-10-07T05:26:57.106Z,977.14
2018-10-07T05:27:57.094Z,977.18
2018-10-07T05:28:57.087Z,977.21
2018-10-07T05:29:57.084Z,977.21
2018-10-07T05:30:57.056Z,977.23
2018-10-07T05:31:57.046Z,977.24
2018-10-07T05:32:57.033Z,977.26
2018-10-07T05:33:57.022Z,977.34
2018-10-07T05:34:57.027Z,977.34
2018-10-07T05:35:57.000Z,977.37
2018-10-07T05:36:57.005Z,977.36
2018-10-07T05:37:56.977Z,977.43
2018-10-07T05:38:56.965Z,977.45
2018-10-07T05:39:56.966Z,977.51
2018-10-07T05:40:56.947Z,977.56
2018-10-07T05:41:56.932Z,977.56
2018-10-07T05:42:56.920Z,977.54
2018-10-07T05:43:56.909Z,977.61
2018-10-07T05:44:56.911Z,977.65
2018-10-07T05:45:56.887Z,977.67
2018-10-07T05:46:56.877Z,977.70
2018-10-07T05:47:56.854Z,977.67
2018-10-07T05:48:56.854Z,977.73
2018-10-07T05:49:56.849Z,977.71
2018-10-07T05:50:56.835Z,977.76
2018-10-07T05:51:56.815Z,977.75
2018-10-07T05:52:56.810Z,977.75
2018-10-07T05:53:56.797Z,977.76
2018-10-07T05:54:56.796Z,977.73
2018-10-07T05:55:56.771Z,977.74
2018-10-07T05:56:56.758Z,977.78
2018-10-07T05:57:56.750Z,977.80
2018-10-07T05:58:56.738Z,977.77
2018-10-07T05:59:56.738Z,977.77
2018-10-07T06:00:56.716Z,977.79
2018-10-07T06:01:56.803Z,977.84
2018-10-07T06:02:56.691Z,977.84
2018-10-07T06:03:56.680Z,977.91
2018-10-07T06:04:56.689Z,977.97
2018-10-07T06:05:56.671Z,978.00
2018-10-07T06:06:56.659Z,978.01
2018-10-07T06:07:56.638Z,978.07
2018-10-07T06:08:56.624Z,978.08
2018-10-07T06:09:56.624Z,978.10
2018-10-07T06:10:56.601Z,978.15
2018-10-07T06:11:56.594Z,978.15
2018-10-07T06:12:56.580Z,978.18
2018-10-07T06:13:56.562Z,978.20
2018-10-07T06:14:56.627Z,978.21
2018-10-07T06:15:56.540Z,978.28
2018-10-07T06:16:56.528Z,978.29
2018-10-07T06:17:56.516Z,978.25
2018-10-07T06:18:56.509Z,978.34
2018-10-07T06:19:56.510Z,978.28
2018-10-07T06:20:56.485Z,978.24
2018-10-07T06:21:56.471Z,978.31
2018-10-07T06:22:56.462Z,978.33
2018-10-07T06:23:56.456Z,978.32
2018-10-07T06:24:56.473Z,978.38
2018-10-07T06:25:56.426Z,978.30
2018-10-07T06:26:56.414Z,978.32
2018-10-07T06:27:56.407Z,978.33
2018-10-07T06:28:56.391Z,978.37
2018-10-07T06:29:56.512Z,978.37
2018-10-07T06:30:56.384Z,978.36
2018-10-07T06:31:56.358Z,978.41
2018-10-07T06:32:56.346Z,978.47
2018-10-07T06:33:56.335Z,978.47
2018-10-07T06:34:56.328Z,978.54
2018-10-07T06:35:56.325Z,978.54
2018-10-07T06:36:56.304Z,978.64
2018-10-07T06:37:56.289Z,978.64
2018-10-07T06:38:56.279Z,978.63
2018-10-07T06:39:56.394Z,978.70
2018-10-07T06:40:56.269Z,978.71
2018-10-07T06:41:56.246Z,978.73
2018-10-07T06:42:56.233Z,978.74
2018-10-07T06:43:56.222Z,978.73
2018-10-07T06:44:56.211Z,978.76
2018-10-07T06:45:56.353Z,978.78
2018-10-07T06:46:56.189Z,978.77
2018-10-07T06:47:56.180Z,978.80
2018-10-07T06:48:56.165Z,978.81
2018-10-07T06:49:56.162Z,978.82
2018-10-07T06:50:56.155Z,978.84
2018-10-07T06:51:56.131Z,978.88
2018-10-07T06:52:56.121Z,978.92
2018-10-07T06:53:56.108Z,978.89
2018-10-07T06:54:56.100Z,978.95
2018-10-07T06:55:56.102Z,978.92
2018-10-07T06:56:56.075Z,978.93
2018-10-07T06:57:56.065Z,978.91
2018-10-07T06:58:56.052Z,978.90
2018-10-07T06:59:56.042Z,978.95
2018-10-07T07:00:56.038Z,979.02
2018-10-07T07:01:56.033Z,979.03
2018-10-07T07:02:56.011Z,979.06
2018-10-07T07:03:55.997Z,979.06
2018-10-07T07:04:55.985Z,979.07
2018-10-07T07:05:55.983Z,978.98
2018-10-07T07:06:55.960Z,978.98
2018-10-07T07:07:55.955Z,978.93
2018-10-07T07:08:55.941Z,978.89
2018-10-07T07:09:55.927Z,978.84
2018-10-07T07:10:55.933Z,978.83
2018-10-07T07:11:55.906Z,978.82
2018-10-07T07:12:55.900Z,978.88
2018-10-07T07:13:55.883Z,978.94
2018-10-07T07:14:55.873Z,978.96
2018-10-07T07:15:55.872Z,978.99
2018-10-07T07:16:55.845Z,979.02
2018-10-07T07:17:55.834Z,979.04
2018-10-07T07:18:55.826Z,979.08
2018-10-07T07:19:55.902Z,979.10
2018-10-07T07:20:55.812Z,979.12
2018-10-07T07:21:55.793Z,979.11
2018-10-07T07:22:55.777Z,979.09
2018-10-07T07:23:55.765Z,979.08
2018-10-07T07:24:55.773Z,979.09
2018-10-07T07:25:55.758Z,979.10
2018-10-07T07:26:55.737Z,979.13
2018-10-07T07:27:55.724Z,979.11
2018-10-07T07:28:55.716Z,979.09
2018-10-07T07:29:55.707Z,979.07
2018-10-07T07:30:55.760Z,979.11
2018-10-07T07:31:55.685Z,979.11
2018-10-07T07:32:55.665Z,979.08
2018-10-07T07:33:55.649Z,979.02
2018-10-07T07:34:55.638Z,979.08
2018-10-07T07:35:55.638Z,979.00
2018-10-07T07:36:55.674Z,979.06
2018-10-07T07:37:55.604Z,979.07
2018-10-07T07:38:55.593Z,979.05
2018-10-07T07:39:55.581Z,979.04
2018-10-07T07:40:55.584Z,979.07
2018-10-07T07:41:55.559Z,979.02
2018-10-07T07:42:55.547Z,979.06
2018-10-07T07:43:55.536Z,979.06
2018-10-07T07:44:55.525Z,979.11
2018-10-07T07:45:55.524Z,979.25
2018-10-07T07:46:55.505Z,979.27
2018-10-07T07:47:55.494Z,979.30
2018-10-07T07:48:55.494Z,979.34
2018-10-07T07:49:55.468Z,979.36
2018-10-07T07:50:55.480Z,979.38
2018-10-07T07:51:55.446Z,979.42
2018-10-07T07:52:55.435Z,979.42
2018-10-07T07:53:55.424Z,979.43
2018-10-07T07:54:55.413Z,979.47
2018-10-07T07:55:55.412Z,979.51
2018-10-07T07:56:55.389Z,979.54
2018-10-07T07:57:55.376Z,979.55
2018-10-07T07:58:55.367Z,979.58
2018-10-07T07:59:55.354Z,979.62
2018-10-07T08:00:55.355Z,979.66
2018-10-07T08:01:55.338Z,979.63
2018-10-07T08:02:55.327Z,979.63
2018-10-07T08:03:55.305Z,979.68
2018-10-07T08:04:55.297Z,979.66
2018-10-07T08:05:55.301Z,979.68
2018-10-07T08:06:55.275Z,979.67
2018-10-07T08:07:55.269Z,979.66
2018-10-07T08:08:55.309Z,979.67
2018-10-07T08:09:55.485Z,979.65
2018-10-07T08:10:55.242Z,979.69
2018-10-07T08:11:55.222Z,979.69
2018-10-07T08:12:55.207Z,979.72
2018-10-07T08:13:55.196Z,979.73
2018-10-07T08:14:55.185Z,979.75
2018-10-07T08:15:55.187Z,979.80
2018-10-07T08:16:55.166Z,979.86
2018-10-07T08:17:55.235Z,979.83
2018-10-07T08:18:55.141Z,979.86
2018-10-07T08:19:55.129Z,979.90
2018-10-07T08:20:55.129Z,979.93
2018-10-07T08:21:55.110Z,979.88
2018-10-07T08:22:55.094Z,979.91
2018-10-07T08:23:55.193Z,979.91
2018-10-07T08:24:55.072Z,979.89
2018-10-07T08:25:55.072Z,979.89
2018-10-07T08:26:55.050Z,979.86
2018-10-07T08:27:55.038Z,979.83
2018-10-07T08:28:55.027Z,979.83
2018-10-07T08:29:55.018Z,979.82
2018-10-07T08:30:55.042Z,979.78
2018-10-07T08:31:54.994Z,979.81
2018-10-07T08:32:54.985Z,979.86
2018-10-07T08:33:54.974Z,979.88
2018-10-07T08:34:54.968Z,979.92
2018-10-07T08:35:54.951Z,979.90
2018-10-07T08:36:54.953Z,979.91
2018-10-07T08:37:54.931Z,979.93
2018-10-07T08:38:54.918Z,979.95
2018-10-07T08:39:54.908Z,979.98
2018-10-07T08:40:54.901Z,979.96
2018-10-07T08:41:54.897Z,979.96
2018-10-07T08:42:54.871Z,979.95
2018-10-07T08:43:55.018Z,979.99
2018-10-07T08:44:54.855Z,979.97
2018-10-07T08:45:54.838Z,979.99
2018-10-07T08:46:54.840Z,980.00
2018-10-07T08:47:54.817Z,980.04
2018-10-07T08:48:54.806Z,980.03
2018-10-07T08:49:54.930Z,980.02
2018-10-07T08:50:54.782Z,980.06
2018-10-07T08:51:54.786Z,980.14
2018-10-07T08:52:54.760Z,980.12
2018-10-07T08:53:54.749Z,980.15
2018-10-07T08:54:54.736Z,980.16
2018-10-07T08:55:54.737Z,980.14
2018-10-07T08:56:54.730Z,980.17
2018-10-07T08:57:54.707Z,980.15
2018-10-07T08:58:54.696Z,980.24
2018-10-07T08:59:54.681Z,980.21
2018-10-07T09:00:54.673Z,980.22
2018-10-07T09:01:54.689Z,980.25
2018-10-07T09:02:54.654Z,980.27
2018-10-07T09:03:54.638Z,980.22
2018-10-07T09:04:54.628Z,980.30
2018-10-07T09:05:54.616Z,980.26
2018-10-07T09:06:54.614Z,980.23
2018-10-07T09:07:54.594Z,980.24
2018-10-07T09:08:54.634Z,980.26
2018-10-07T09:09:54.571Z,980.24
2018-10-07T09:10:54.563Z,980.29
2018-10-07T09:11:54.564Z,980.26
2018-10-07T09:12:54.540Z,980.28
2018-10-07T09:13:54.529Z,980.32
2018-10-07T09:14:54.516Z,980.31
2018-10-07T09:15:54.503Z,980.32
2018-10-07T09:16:54.509Z,980.36
2018-10-07T09:17:54.480Z,980.41
2018-10-07T09:18:54.471Z,980.49
2018-10-07T09:19:54.463Z,980.45
2018-10-07T09:20:54.461Z,980.49
2018-10-07T09:21:54.452Z,980.47
2018-10-07T09:22:54.429Z,980.50
2018-10-07T09:23:54.417Z,980.56
2018-10-07T09:24:54.410Z,980.66
2018-10-07T09:25:54.398Z,980.63
2018-10-07T09:26:54.467Z,980.70
2018-10-07T09:27:54.377Z,980.67
2018-10-07T09:28:54.361Z,980.76
2018-10-07T09:29:54.359Z,980.78
2018-10-07T09:30:54.339Z,980.76
2018-10-07T09:31:54.345Z,980.77
2018-10-07T09:32:54.376Z,980.81
2018-10-07T09:33:54.304Z,980.81
2018-10-07T09:34:54.292Z,980.82
2018-10-07T09:35:54.285Z,980.79
2018-10-07T09:36:54.379Z,980.84
2018-10-07T09:37:54.267Z,980.82
2018-10-07T09:38:54.248Z,980.87
2018-10-07T09:39:54.317Z,980.84
2018-10-07T09:40:54.233Z,980.88
2018-10-07T09:41:54.229Z,980.88
2018-10-07T09:42:54.212Z,980.81
2018-10-07T09:43:54.195Z,980.85
2018-10-07T09:44:54.189Z,980.88
2018-10-07T09:45:54.177Z,980.84
2018-10-07T09:46:54.174Z,980.86
2018-10-07T09:47:54.761Z,980.91
2018-10-07T09:48:54.138Z,980.96
2018-10-07T09:49:54.129Z,980.99
2018-10-07T09:50:54.118Z,980.99
2018-10-07T09:51:54.116Z,981.05
2018-10-07T09:52:54.093Z,981.04
2018-10-07T09:53:54.083Z,981.07
2018-10-07T09:54:54.070Z,981.05
2018-10-07T09:55:54.077Z,981.07
2018-10-07T09:56:54.069Z,981.08
2018-10-07T09:57:54.106Z,981.10
2018-10-07T09:58:54.028Z,981.09
2018-10-07T09:59:54.014Z,981.16
2018-10-07T10:00:54.011Z,981.10
2018-10-07T10:01:54.005Z,981.15
2018-10-07T10:02:53.985Z,981.26
2018-10-07T10:03:54.037Z,981.21
2018-10-07T10:04:53.961Z,981.25
2018-10-07T10:05:53.950Z,981.29
2018-10-07T10:06:53.978Z,981.33
2018-10-07T10:07:53.930Z,981.32
2018-10-07T10:08:53.917Z,981.31
2018-10-07T10:09:53.905Z,981.35
2018-10-07T10:10:53.953Z,981.36
2018-10-07T10:11:53.898Z,981.40
2018-10-07T10:12:53.872Z,981.45
2018-10-07T10:13:53.860Z,981.42
2018-10-07T10:14:53.849Z,981.45
2018-10-07T10:15:53.837Z,981.45
2018-10-07T10:16:53.839Z,981.41
2018-10-07T10:17:53.823Z,981.48
2018-10-07T10:18:53.805Z,981.45
2018-10-07T10:19:53.792Z,981.47
2018-10-07T10:20:53.788Z,981.54
2018-10-07T10:21:53.782Z,981.50
2018-10-07T10:22:53.763Z,981.51
2018-10-07T10:23:53.751Z,981.53
2018-10-07T10:24:53.740Z,981.56
2018-10-07T10:25:53.729Z,981.56
2018-10-07T10:26:53.888Z,981.56
2018-10-07T10:27:53.706Z,981.56
2018-10-07T10:28:53.695Z,981.56
2018-10-07T10:29:53.683Z,981.60
2018-10-07T10:30:53.672Z,981.58
2018-10-07T10:31:53.676Z,981.54
2018-10-07T10:32:53.653Z,981.55
2018-10-07T10:33:53.642Z,981.59
2018-10-07T10:34:53.622Z,981.54
2018-10-07T10:35:53.682Z,981.56
2018-10-07T10:36:53.742Z,981.55
2018-10-07T10:37:53.598Z,981.59
2018-10-07T10:38:53.582Z,981.58
2018-10-07T10:39:53.595Z,981.55
2018-10-07T10:40:53.711Z,981.53
2018-10-07T10:41:53.552Z,981.53
2018-10-07T10:42:53.548Z,981.57
2018-10-07T10:43:53.536Z,981.54
2018-10-07T10:44:53.533Z,981.60
2018-10-07T10:45:53.506Z,981.58
2018-10-07T10:46:53.496Z,981.59
2018-10-07T10:47:53.536Z,981.60
2018-10-07T10:48:53.473Z,981.62
2018-10-07T10:49:53.462Z,981.62
2018-10-07T10:50:53.446Z,981.63
2018-10-07T10:51:53.583Z,981.59
2018-10-07T10:52:53.443Z,981.58
2018-10-07T10:53:53.458Z,981.58
2018-10-07T10:54:53.389Z,981.60
2018-10-07T10:55:53.429Z,981.58
2018-10-07T10:56:53.372Z,981.55
2018-10-07T10:57:53.378Z,981.57
2018-10-07T10:58:53.360Z,981.61
2018-10-07T10:59:53.357Z,981.54
2018-10-07T11:00:53.399Z,981.58
2018-10-07T11:01:53.323Z,981.60
2018-10-07T11:02:53.327Z,981.56
2018-10-07T11:03:53.307Z,981.58
2018-10-07T11:04:53.321Z,981.63
2018-10-07T11:05:53.286Z,981.60
2018-10-07T11:06:53.273Z,981.61
2018-10-07T11:07:53.273Z,981.63
2018-10-07T11:08:53.250Z,981.65
2018-10-07T11:09:53.239Z,981.68
2018-10-07T11:10:53.230Z,981.66
2018-10-07T11:11:53.226Z,981.66
2018-10-07T11:12:53.218Z,981.74
2018-10-07T11:13:53.264Z,981.72
2018-10-07T11:14:53.190Z,981.77
2018-10-07T11:15:53.260Z,981.75
2018-10-07T11:16:53.161Z,981.77
2018-10-07T11:17:53.162Z,981.78
2018-10-07T11:18:53.146Z,981.77
2018-10-07T11:19:53.133Z,981.74
2018-10-07T11:20:53.120Z,981.79
2018-10-07T11:21:53.112Z,981.78
2018-10-07T11:22:53.113Z,981.76
2018-10-07T11:23:53.088Z,981.73
2018-10-07T11:24:53.075Z,981.77
2018-10-07T11:25:53.063Z,981.80
2018-10-07T11:26:53.052Z,981.79
2018-10-07T11:27:53.055Z,981.83
2018-10-07T11:28:53.029Z,981.84
2018-10-07T11:29:53.017Z,981.85
2018-10-07T11:30:53.006Z,981.88
2018-10-07T11:31:53.000Z,981.80
2018-10-07T11:32:52.996Z,981.85
2018-10-07T11:33:52.983Z,981.92
2018-10-07T11:34:53.063Z,981.86
2018-10-07T11:35:52.950Z,981.94
2018-10-07T11:36:52.947Z,981.87
2018-10-07T11:37:52.940Z,981.94
2018-10-07T11:38:52.920Z,981.90
2018-10-07T11:39:52.908Z,981.92
2018-10-07T11:40:52.959Z,981.96
2018-10-07T11:41:52.888Z,981.92
2018-10-07T11:42:52.888Z,981.91
2018-10-07T11:43:52.863Z,981.92
2018-10-07T11:44:52.852Z,981.96
2018-10-07T11:45:52.842Z,981.95
2018-10-07T11:46:52.862Z,981.96
2018-10-07T11:47:52.830Z,981.92
2018-10-07T11:48:52.811Z,981.88
2018-10-07T11:49:52.795Z,981.92
2018-10-07T11:50:52.785Z,981.97
2018-10-07T11:51:52.773Z,981.92
2018-10-07T11:52:52.794Z,981.97
2018-10-07T11:53:52.752Z,981.94
2018-10-07T11:54:52.739Z,981.90
2018-10-07T11:55:52.727Z,981.86
2018-10-07T11:56:52.718Z,981.93
2018-10-07T11:57:52.718Z,981.85
2018-10-07T11:58:52.694Z,981.84
2018-10-07T11:59:52.687Z,981.81
2018-10-07T12:00:52.667Z,981.83
2018-10-07T12:01:52.668Z,981.81
2018-10-07T12:02:52.726Z,981.79
2018-10-07T12:03:52.767Z,981.79
2018-10-07T12:04:52.631Z,981.78
2018-10-07T12:05:52.619Z,981.79
2018-10-07T12:06:52.607Z,981.83
2018-10-07T12:07:52.607Z,981.79
2018-10-07T12:08:52.586Z,981.83
2018-10-07T12:09:52.574Z,981.91
2018-10-07T12:10:52.565Z,981.89
2018-10-07T12:11:52.538Z,981.93
2018-10-07T12:12:52.551Z,981.89
2018-10-07T12:13:52.527Z,981.92
2018-10-07T12:14:52.518Z,981.91
2018-10-07T12:15:52.510Z,981.93
2018-10-07T12:16:52.499Z,981.89
2018-10-07T12:17:52.498Z,981.92
2018-10-07T12:18:52.476Z,981.96
2018-10-07T12:19:52.459Z,981.97
2018-10-07T12:20:52.453Z,981.91
2018-10-07T12:21:52.441Z,981.97
2018-10-07T12:22:52.443Z,981.99
2018-10-07T12:23:52.416Z,981.99
2018-10-07T12:24:52.408Z,982.01
2018-10-07T12:25:52.398Z,982.08
2018-10-07T12:26:52.389Z,982.12
2018-10-07T12:27:52.386Z,982.05
2018-10-07T12:28:52.374Z,982.04
2018-10-07T12:29:52.353Z,982.02
2018-10-07T12:30:52.340Z,982.03
2018-10-07T12:31:52.329Z,982.08
2018-10-07T12:32:52.334Z,982.05
2018-10-07T12:33:52.306Z,982.07
2018-10-07T12:34:52.295Z,982.07
2018-10-07T12:35:52.284Z,982.09
2018-10-07T12:36:52.304Z,982.04
2018-10-07T12:37:52.273Z,982.10
2018-10-07T12:38:52.255Z,982.11
2018-10-07T12:39:52.243Z,982.15
2018-10-07T12:40:52.242Z,982.16
2018-10-07T12:41:52.220Z,982.19
2018-10-07T12:42:52.241Z,982.19
2018-10-07T12:43:52.197Z,982.17
2018-10-07T12:44:52.186Z,982.21
2018-10-07T12:45:52.176Z,982.21
2018-10-07T12:46:52.166Z,982.26
2018-10-07T12:47:52.155Z,982.24
2018-10-07T12:48:52.155Z,982.32
2018-10-07T12:49:52.134Z,982.28
2018-10-07T12:50:52.123Z,982.32
2018-10-07T12:51:52.108Z,982.33
2018-10-07T12:52:52.097Z,982.33
2018-10-07T12:53:52.135Z,982.32
2018-10-07T12:54:52.073Z,982.32
2018-10-07T12:55:52.063Z,982.33
2018-10-07T12:56:52.051Z,982.34
2018-10-07T12:57:52.045Z,982.35
2018-10-07T12:58:52.044Z,982.35
2018-10-07T12:59:52.025Z,982.31
2018-10-07T13:00:52.010Z,982.33
2018-10-07T13:01:52.086Z,982.35
2018-10-07T13:02:51.991Z,982.36
2018-10-07T13:03:52.082Z,982.33
2018-10-07T13:04:51.964Z,982.39
2018-10-07T13:05:51.954Z,982.40
2018-10-07T13:06:51.941Z,982.41
2018-10-07T13:07:51.970Z,982.42
2018-10-07T13:08:51.985Z,982.47
2018-10-07T13:09:51.908Z,982.46
2018-10-07T13:10:51.897Z,982.48
2018-10-07T13:11:51.887Z,982.54
2018-10-07T13:12:51.877Z,982.52
2018-10-07T13:13:51.874Z,982.64
2018-10-07T13:14:51.852Z,982.65
2018-10-07T13:15:51.839Z,982.66
2018-10-07T13:16:51.833Z,982.65
2018-10-07T13:17:51.818Z,982.67
2018-10-07T13:18:51.826Z,982.76
2018-10-07T13:19:51.794Z,982.72
2018-10-07T13:20:51.791Z,982.76
2018-10-07T13:21:51.784Z,982.77
2018-10-07T13:22:51.764Z,982.77
2018-10-07T13:23:51.774Z,982.76
2018-10-07T13:24:51.744Z,982.83
2018-10-07T13:25:51.733Z,982.84
2018-10-07T13:26:51.727Z,982.83
2018-10-07T13:27:51.708Z,982.83
2018-10-07T13:28:51.709Z,982.87
2018-10-07T13:29:51.686Z,982.90
2018-10-07T13:30:51.677Z,982.91
2018-10-07T13:31:51.663Z,982.91
2018-10-07T13:32:51.652Z,982.91
2018-10-07T13:33:51.652Z,982.90
2018-10-07T13:34:51.628Z,982.91
2018-10-07T13:35:51.621Z,982.90
2018-10-07T13:36:51.606Z,982.90
2018-10-07T13:37:51.595Z,982.92
2018-10-07T13:38:51.601Z,982.96
2018-10-07T13:39:51.635Z,982.93
2018-10-07T13:40:51.565Z,982.98
2018-10-07T13:41:51.556Z,982.96
2018-10-07T13:42:51.543Z,982.98
2018-10-07T13:43:51.543Z,982.98
2018-10-07T13:44:51.520Z,982.96
2018-10-07T13:45:51.509Z,982.97
2018-10-07T13:46:51.497Z,982.97
2018-10-07T13:47:51.486Z,982.99
2018-10-07T13:48:51.486Z,983.03
2018-10-07T13:49:51.463Z,982.99
2018-10-07T13:50:51.452Z,983.04
2018-10-07T13:51:51.443Z,982.99
2018-10-07T13:52:51.430Z,983.01
2018-10-07T13:53:51.440Z,983.01
2018-10-07T13:54:51.411Z,983.02
2018-10-07T13:55:51.400Z,982.97
2018-10-07T13:56:51.384Z,982.99
2018-10-07T13:57:51.378Z,982.97
2018-10-07T13:58:51.382Z,983.01
2018-10-07T13:59:51.353Z,983.04
2018-10-07T14:00:51.344Z,983.04
2018-10-07T14:01:51.336Z,983.04
2018-10-07T14:02:51.320Z,983.03
2018-10-07T14:03:51.344Z,983.09
2018-10-07T14:04:51.314Z,983.10
2018-10-07T14:05:51.286Z,983.12
2018-10-07T14:06:51.275Z,983.21
2018-10-07T14:07:51.269Z,983.24
2018-10-07T14:08:51.265Z,983.22
2018-10-07T14:09:51.243Z,983.29
2018-10-07T14:10:51.229Z,983.27
2018-10-07T14:11:51.222Z,983.33
2018-10-07T14:12:51.207Z,983.38
2018-10-07T14:13:51.207Z,983.37
2018-10-07T14:14:51.189Z,983.36
2018-10-07T14:15:51.178Z,983.37
2018-10-07T14:16:51.167Z,983.34
2018-10-07T14:17:51.159Z,983.25
2018-10-07T14:18:51.155Z,983.31
2018-10-07T14:19:51.132Z,983.30
2018-10-07T14:20:51.121Z,983.30
2018-10-07T14:21:51.130Z,983.27
2018-10-07T14:22:51.088Z,983.34
2018-10-07T14:23:51.148Z,983.38
2018-10-07T14:24:51.076Z,983.38
2018-10-07T14:25:51.067Z,983.47
2018-10-07T14:26:51.053Z,983.43
2018-10-07T14:27:51.041Z,983.41
2018-10-07T14:28:51.042Z,983.52
2018-10-07T14:29:51.019Z,983.52
2018-10-07T14:30:51.008Z,983.52
2018-10-07T14:31:50.997Z,983.53
2018-10-07T14:32:50.984Z,983.58
2018-10-07T14:33:50.986Z,983.57
2018-10-07T14:34:50.974Z,983.58
2018-10-07T14:35:50.956Z,983.64
2018-10-07T14:36:50.928Z,983.65
2018-10-07T14:37:50.937Z,983.66
2018-10-07T14:38:50.929Z,983.70
2018-10-07T14:39:50.910Z,983.71
2018-10-07T14:40:50.899Z,983.67
2018-10-07T14:41:50.887Z,983.69
2018-10-07T14:42:50.876Z,983.74
2018-10-07T14:43:50.917Z,983.73
2018-10-07T14:44:50.854Z,983.74
2018-10-07T14:45:50.899Z,983.73
2018-10-07T14:46:50.832Z,983.73
2018-10-07T14:47:50.820Z,983.80
2018-10-07T14:48:50.809Z,983.74
2018-10-07T14:49:50.814Z,983.74
2018-10-07T14:50:50.791Z,983.75
2018-10-07T14:51:50.775Z,983.75
2018-10-07T14:52:50.768Z,983.71
2018-10-07T14:53:50.757Z,983.82
2018-10-07T14:54:50.764Z,983.75
2018-10-07T14:55:50.736Z,983.83
2018-10-07T14:56:50.715Z,983.89
2018-10-07T14:57:50.704Z,983.88
2018-10-07T14:58:50.700Z,983.93
2018-10-07T14:59:50.701Z,983.94
2018-10-07T15:00:50.678Z,983.94
2018-10-07T15:01:50.670Z,983.94
2018-10-07T15:02:50.655Z,983.91
2018-10-07T15:03:50.642Z,983.89
2018-10-07T15:04:50.645Z,983.92
2018-10-07T15:05:50.621Z,983.93
2018-10-07T15:06:50.608Z,983.95
2018-10-07T15:07:50.597Z,983.94
2018-10-07T15:08:50.590Z,983.92
2018-10-07T15:09:50.591Z,983.93
2018-10-07T15:10:50.567Z,983.95
2018-10-07T15:11:50.560Z,983.98
2018-10-07T15:12:50.550Z,984.03
2018-10-07T15:13:50.533Z,984.02
2018-10-07T15:14:50.530Z,984.04
2018-10-07T15:15:50.513Z,984.08
2018-10-07T15:16:50.503Z,984.02
2018-10-07T15:17:50.488Z,984.04
2018-10-07T15:18:50.477Z,984.05
2018-10-07T15:19:50.481Z,984.13
2018-10-07T15:20:50.577Z,984.10
2018-10-07T15:21:50.443Z,984.14
2018-10-07T15:22:50.431Z,984.09
2018-10-07T15:23:50.549Z,984.08
2018-10-07T15:24:50.433Z,984.11
2018-10-07T15:25:50.397Z,984.12
2018-10-07T15:26:50.387Z,984.12
2018-10-07T15:27:50.379Z,984.16
2018-10-07T15:28:50.369Z,984.19
2018-10-07T15:29:50.431Z,984.21
2018-10-07T15:30:50.345Z,984.25
2018-10-07T15:31:50.335Z,984.19
2018-10-07T15:32:50.326Z,984.20
2018-10-07T15:33:50.311Z,984.20
2018-10-07T15:34:50.312Z,984.23
2018-10-07T15:35:50.295Z,984.22
2018-10-07T15:36:50.278Z,984.25
2018-10-07T15:37:50.266Z,984.24
2018-10-07T15:38:50.255Z,984.24
2018-10-07T15:39:50.261Z,984.31
2018-10-07T15:40:50.233Z,984.33
2018-10-07T15:41:50.210Z,984.36
2018-10-07T15:42:50.219Z,984.37
2018-10-07T15:43:50.199Z,984.33
2018-10-07T15:44:50.202Z,984.31
2018-10-07T15:45:50.177Z,984.27
2018-10-07T15:46:50.176Z,984.33
2018-10-07T15:47:50.158Z,984.30
2018-10-07T15:48:50.147Z,984.32
2018-10-07T15:49:50.147Z,984.33
2018-10-07T15:50:50.123Z,984.37
2018-10-07T15:51:50.113Z,984.38
2018-10-07T15:52:50.104Z,984.43
2018-10-07T15:53:50.103Z,984.41